This is the latest recevied weather packets stored in our database for station/object SP3WRO-13. If no packets are shown the sender has not sent any weather packets the latest 10 day(s).
| Time | Temp. | Humidity | Pressure | Rain* | Wind** | Luminosity | Snow |
|---|---|---|---|---|---|---|---|
| 1777722262 | 24.44° C | 30% | 1017.6 hPa | - | - | 726 W/m² | - |
| 1777721362 | 25° C | 30% | 1017.8 hPa | - | - | 737 W/m² | - |
| 1777720462 | 23.89° C | 32% | 1018 hPa | - | - | 748 W/m² | - |
| 1777719562 | 24.44° C | 31% | 1018.2 hPa | - | - | 758 W/m² | - |
| 1777718662 | 24.44° C | 32% | 1018.4 hPa | - | - | 758 W/m² | - |
| 1777717762 | 23.89° C | 33% | 1018.6 hPa | - | - | 748 W/m² | - |
| 1777716862 | 23.33° C | 32% | 1018.7 hPa | - | - | 745 W/m² | - |
| 1777715962 | 23.33° C | 34% | 1018.9 hPa | - | - | 730 W/m² | - |
| 1777715062 | 23.33° C | 30% | 1019 hPa | - | - | 730 W/m² | - |
| 1777714162 | 23.89° C | 29% | 1019.2 hPa | - | - | 711 W/m² | - |
| 1777713262 | 23.33° C | 35% | 1019.3 hPa | - | - | 697 W/m² | - |
| 1777712362 | 22.78° C | 33% | 1019.5 hPa | - | - | 685 W/m² | - |
| 1777711462 | 23.33° C | 32% | 1019.6 hPa | - | - | 659 W/m² | - |
| 1777710561 | 22.78° C | 36% | 1019.8 hPa | - | - | 632 W/m² | - |
| 1777709661 | 21.67° C | 40% | 1019.9 hPa | - | - | 596 W/m² | - |
| 1777708761 | 21.67° C | 41% | 1020.1 hPa | - | - | 570 W/m² | - |
| 1777707861 | 19.44° C | 41% | 1020.2 hPa | - | - | 530 W/m² | - |
| 1777706961 | 18.33° C | 48% | 1020.3 hPa | - | - | 362 W/m² | - |
| 1777706061 | 17.22° C | 48% | 1020.4 hPa | - | - | 450 W/m² | - |
| 1777705161 | 16.67° C | 50% | 1020.4 hPa | - | - | 406 W/m² | - |
| 1777704261 | 16.11° C | 52% | 1020.4 hPa | - | - | 367 W/m² | - |
| 1777703361 | 15° C | 52% | 1020.5 hPa | - | - | 323 W/m² | - |
| 1777702461 | 13.33° C | 58% | 1020.6 hPa | - | - | 279 W/m² | - |
| 1777701561 | 11.67° C | 60% | 1020.6 hPa | - | - | 235 W/m² | - |
| 1777700661 | 11.11° C | 60% | 1020.7 hPa | - | - | 193 W/m² | - |
* Rain since midnight (hover to see other rain measurements)
** Current wind speed in m/s (hover to see current wind gust speed)